createdAt,value
2022-09-15T00:01:20.008Z,98566.39
2022-09-15T00:03:48.671Z,98565.81
2022-09-15T00:06:16.877Z,98564.84
2022-09-15T00:08:44.928Z,98572.38
2022-09-15T00:11:22.229Z,98572.46
2022-09-15T00:13:51.641Z,98564.61
2022-09-15T00:16:22.402Z,98563.67
2022-09-15T00:18:50.764Z,98569.17
2022-09-15T00:21:21.655Z,98561.16
2022-09-15T00:23:50.247Z,98565.73
2022-09-15T00:26:22.907Z,98566.49
2022-09-15T00:28:51.645Z,98567.81
2022-09-15T00:31:22.767Z,98567.42
2022-09-15T00:33:52.551Z,98573.17
2022-09-15T00:36:22.581Z,98575.27
2022-09-15T00:38:50.807Z,98570.88
2022-09-15T00:41:20.766Z,98573.32
2022-09-15T00:44:27.148Z,98574.20
2022-09-15T00:47:17.867Z,98578.48
2022-09-15T00:49:47.651Z,98575.89
2022-09-15T00:52:28.693Z,98575.43
2022-09-15T00:55:06.491Z,98580.98
2022-09-15T00:57:42.283Z,98580.71
2022-09-15T01:00:14.348Z,98579.91
2022-09-15T01:02:44.699Z,98576.34
2022-09-15T01:05:15.508Z,98575.42
2022-09-15T01:07:56.553Z,98571.52
2022-09-15T01:10:30.485Z,98570.05
2022-09-15T01:13:01.118Z,98564.70
2022-09-15T01:15:51.625Z,98558.19
2022-09-15T01:18:22.442Z,98553.55
2022-09-15T01:20:57.143Z,98550.88
2022-09-15T01:23:58.526Z,98547.33
2022-09-15T01:26:42.249Z,98545.89
2022-09-15T01:29:41.891Z,98545.18
2022-09-15T01:32:32.360Z,98537.61
2022-09-15T01:35:10.930Z,98536.08
2022-09-15T01:37:44.606Z,98536.63
2022-09-15T01:40:15.488Z,98540.54
2022-09-15T01:42:45.504Z,98541.55
2022-09-15T01:45:29.311Z,98545.23
2022-09-15T01:47:59.641Z,98540.33
2022-09-15T01:50:36.636Z,98538.73
2022-09-15T01:53:11.418Z,98536.12
2022-09-15T01:55:44.457Z,98531.32
2022-09-15T01:58:12.367Z,98532.75
2022-09-15T02:00:46.061Z,98535.11
2022-09-15T02:03:33.714Z,98540.75
2022-09-15T02:06:07.225Z,98543.18
2022-09-15T02:08:47.687Z,98537.14
2022-09-15T02:11:28.025Z,98531.14
2022-09-15T02:14:17.328Z,98528.69
2022-09-15T02:16:49.003Z,98529.54
2022-09-15T02:19:35.875Z,98531.58
2022-09-15T02:22:10.598Z,98528.81
2022-09-15T02:24:44.290Z,98529.80
2022-09-15T02:27:18.371Z,98526.16
2022-09-15T02:29:48.704Z,98524.27
2022-09-15T02:32:23.163Z,98524.39
2022-09-15T02:34:54.639Z,98525.45
2022-09-15T02:37:24.225Z,98521.98
2022-09-15T02:39:59.296Z,98521.80
2022-09-15T02:42:29.801Z,98521.13
2022-09-15T02:44:58.630Z,98522.11
2022-09-15T02:47:28.284Z,98527.21
2022-09-15T02:49:56.044Z,98525.71
2022-09-15T02:52:24.292Z,98521.77
2022-09-15T02:54:52.014Z,98518.45
2022-09-15T02:57:19.768Z,98516.61
2022-09-15T03:00:03.993Z,98506.83
2022-09-15T03:02:32.272Z,98501.15
2022-09-15T03:05:00.055Z,98501.85
2022-09-15T03:07:28.528Z,98502.89
2022-09-15T03:09:56.646Z,98506.98
2022-09-15T03:12:25.622Z,98505.27
2022-09-15T03:14:53.400Z,98507.77
2022-09-15T03:17:21.133Z,98509.59
2022-09-15T03:19:50.504Z,98508.16
2022-09-15T03:22:18.241Z,98506.92
2022-09-15T03:24:46.020Z,98510.29
2022-09-15T03:27:14.515Z,98505.50
2022-09-15T03:29:42.626Z,98502.44
2022-09-15T03:32:10.855Z,98502.11
2022-09-15T03:34:38.632Z,98504.71
2022-09-15T03:37:06.906Z,98506.52
2022-09-15T03:39:34.671Z,98506.60
2022-09-15T03:42:02.403Z,98511.23
2022-09-15T03:44:30.271Z,98506.84
2022-09-15T03:46:58.298Z,98504.33
2022-09-15T03:49:26.028Z,98496.33
2022-09-15T03:51:53.771Z,98502.13
2022-09-15T03:54:21.550Z,98506.05
2022-09-15T03:56:51.883Z,98502.44
2022-09-15T03:59:20.881Z,98504.53
2022-09-15T04:01:49.097Z,98505.77
2022-09-15T04:04:17.529Z,98508.17
2022-09-15T04:06:45.318Z,98508.61
2022-09-15T04:09:13.568Z,98511.13
2022-09-15T04:11:41.941Z,98509.16
2022-09-15T04:14:09.706Z,98508.11
2022-09-15T04:16:37.625Z,98505.39
2022-09-15T04:19:05.374Z,98507.95
2022-09-15T04:21:33.122Z,98507.79
2022-09-15T04:24:01.068Z,98511.16
2022-09-15T04:26:31.879Z,98513.52
2022-09-15T04:29:04.140Z,98510.54
2022-09-15T04:31:33.778Z,98514.11
2022-09-15T04:34:01.912Z,98513.55
2022-09-15T04:36:30.137Z,98509.05
2022-09-15T04:38:58.174Z,98502.85
2022-09-15T04:41:26.832Z,98498.84
2022-09-15T04:43:55.212Z,98495.58
2022-09-15T04:46:23.072Z,98497.08
2022-09-15T04:48:52.137Z,98496.07
2022-09-15T04:51:21.285Z,98492.94
2022-09-15T04:53:50.112Z,98494.86
2022-09-15T04:56:21.108Z,98490.38
2022-09-15T04:59:03.253Z,98489.38
2022-09-15T05:01:35.408Z,98493.09
2022-09-15T05:04:04.576Z,98487.21
2022-09-15T05:06:35.030Z,98488.86
2022-09-15T05:09:10.014Z,98489.64
2022-09-15T05:11:38.628Z,98488.88
2022-09-15T05:14:08.074Z,98491.11
2022-09-15T05:16:36.049Z,98492.14
2022-09-15T05:19:04.731Z,98491.14
2022-09-15T05:21:32.945Z,98491.77
2022-09-15T05:24:00.843Z,98493.52
2022-09-15T05:26:29.826Z,98490.24
2022-09-15T05:28:57.760Z,98489.69
2022-09-15T05:31:28.407Z,98489.84
2022-09-15T05:33:56.926Z,98489.41
2022-09-15T05:36:25.322Z,98490.63
2022-09-15T05:38:56.464Z,98491.46
2022-09-15T05:41:25.563Z,98495.49
2022-09-15T05:43:56.933Z,98492.52
2022-09-15T05:46:29.343Z,98489.73
2022-09-15T05:48:58.497Z,98490.35
2022-09-15T05:51:26.358Z,98491.92
2022-09-15T05:53:54.132Z,98491.35
2022-09-15T05:56:22.060Z,98488.60
2022-09-15T05:58:49.890Z,98488.92
2022-09-15T06:01:23.545Z,98488.73
2022-09-15T06:03:53.035Z,98485.04
2022-09-15T06:06:22.082Z,98481.15
2022-09-15T06:08:58.588Z,98483.94
2022-09-15T06:11:30.135Z,98481.30
2022-09-15T06:14:03.672Z,98480.23
2022-09-15T06:16:34.405Z,98480.11
2022-09-15T06:19:03.429Z,98478.41
2022-09-15T06:21:33.080Z,98480.10
2022-09-15T06:24:07.124Z,98483.30
2022-09-15T06:26:35.182Z,98479.49
2022-09-15T06:29:05.125Z,98479.46
2022-09-15T06:31:34.453Z,98473.36
2022-09-15T06:34:04.020Z,98471.77
2022-09-15T06:36:32.379Z,98473.45
2022-09-15T06:39:00.209Z,98475.98
2022-09-15T06:41:47.459Z,98474.05
2022-09-15T06:44:19.773Z,98471.71
2022-09-15T06:46:48.471Z,98473.05
2022-09-15T06:49:16.935Z,98468.77
2022-09-15T06:51:44.945Z,98471.04
2022-09-15T06:54:14.588Z,98470.21
2022-09-15T06:56:42.986Z,98469.56
2022-09-15T06:59:12.672Z,98463.02
2022-09-15T07:01:44.868Z,98466.64
2022-09-15T07:04:12.872Z,98464.35
2022-09-15T07:06:40.687Z,98466.74
2022-09-15T07:09:08.514Z,98467.77
2022-09-15T07:11:36.544Z,98464.66
2022-09-15T07:14:04.940Z,98466.73
2022-09-15T07:16:33.445Z,98468.08
2022-09-15T07:19:03.484Z,98467.55
2022-09-15T07:25:11.133Z,98462.10
2022-09-15T07:27:39.330Z,98466.81
2022-09-15T07:30:08.846Z,98469.56
2022-09-15T07:32:36.518Z,98492.90
2022-09-15T07:35:04.452Z,98493.84
2022-09-15T07:37:33.189Z,98487.62
2022-09-15T07:40:01.141Z,98492.41
2022-09-15T07:42:32.191Z,98486.04
2022-09-15T07:45:03.234Z,98488.23
2022-09-15T07:47:32.888Z,98487.67
2022-09-15T07:50:00.690Z,98483.57
2022-09-15T07:52:28.459Z,98481.65
2022-09-15T07:54:56.299Z,98488.81
2022-09-15T07:57:24.056Z,98486.35
2022-09-15T07:59:51.815Z,98488.62
2022-09-15T08:02:21.439Z,98492.48
2022-09-15T08:04:49.372Z,98482.19
2022-09-15T08:07:17.141Z,98481.14
2022-09-15T08:09:44.981Z,98487.27
2022-09-15T08:12:12.754Z,98483.52
2022-09-15T08:14:52.616Z,98490.50
2022-09-15T08:17:35.205Z,98488.03
2022-09-15T08:20:44.894Z,98499.73
2022-09-15T08:23:13.070Z,98493.77
2022-09-15T08:25:40.853Z,98490.82
2022-09-15T08:28:08.695Z,98484.88
2022-09-15T08:30:36.819Z,98485.05
2022-09-15T08:33:04.823Z,98486.55
2022-09-15T08:35:34.337Z,98477.81
2022-09-15T08:38:02.364Z,98477.48
2022-09-15T08:40:37.526Z,98483.11
2022-09-15T08:43:21.000Z,98480.50
2022-09-15T08:45:55.815Z,98472.70
2022-09-15T08:52:06.828Z,98481.42
2022-09-15T08:54:34.624Z,98487.22
2022-09-15T08:57:06.032Z,98484.56
2022-09-15T08:59:35.965Z,98478.45
2022-09-15T09:02:11.775Z,98484.80
2022-09-15T11:29:03.467Z,98455.64
2022-09-15T11:31:38.862Z,98458.83
2022-09-15T11:34:20.891Z,98443.63
2022-09-15T11:37:11.080Z,98449.64
2022-09-15T11:39:54.154Z,98435.86
2022-09-15T11:42:38.134Z,98438.00
2022-09-15T11:45:18.098Z,98431.58
2022-09-15T11:47:54.564Z,98435.86
2022-09-15T11:50:49.874Z,98441.78
2022-09-15T11:53:37.726Z,98442.58
2022-09-15T11:56:16.123Z,98441.09
2022-09-15T11:59:03.775Z,98442.53
2022-09-15T12:01:41.297Z,98451.26
2022-09-15T12:04:15.366Z,98453.86
2022-09-15T12:06:55.466Z,98453.36
2022-09-15T12:09:23.524Z,98454.52
2022-09-15T12:12:01.915Z,98458.96
2022-09-15T12:14:35.092Z,98457.58
2022-09-15T12:17:06.248Z,98454.95
2022-09-15T12:19:33.965Z,98449.54
2022-09-15T12:22:16.263Z,98451.61
2022-09-15T12:24:53.397Z,98448.92
2022-09-15T12:27:21.899Z,98445.78
2022-09-15T12:29:51.727Z,98453.33
2022-09-15T12:32:21.201Z,98460.77
2022-09-15T12:34:56.241Z,98460.20
2022-09-15T12:37:25.705Z,98456.72
2022-09-15T12:39:54.205Z,98453.21
2022-09-15T12:42:31.347Z,98451.13
2022-09-15T12:45:03.821Z,98462.77
2022-09-15T12:47:51.409Z,98450.81
2022-09-15T12:50:51.813Z,98442.33
2022-09-15T12:53:40.839Z,98449.00
2022-09-15T12:56:28.477Z,98454.56
2022-09-15T12:58:56.685Z,98454.02
2022-09-15T13:01:24.557Z,98449.51
2022-09-15T13:03:57.775Z,98447.22
2022-09-15T13:06:34.101Z,98442.36
2022-09-15T13:09:06.383Z,98439.27
2022-09-15T13:11:37.305Z,98440.88
2022-09-15T13:14:08.721Z,98439.90
2022-09-15T13:16:48.726Z,98443.56
2022-09-15T13:19:25.837Z,98448.49
2022-09-15T13:22:00.280Z,98448.17
2022-09-15T13:25:01.515Z,98462.14
2022-09-15T13:27:47.901Z,98454.23
2022-09-15T13:30:22.202Z,98444.89
2022-09-15T13:32:54.359Z,98445.30
2022-09-15T13:35:41.350Z,98449.52
2022-09-15T13:38:29.272Z,98437.24
2022-09-15T13:41:33.253Z,98429.44
2022-09-15T13:44:33.047Z,98435.67
2022-09-15T13:47:15.861Z,98428.17
2022-09-15T13:50:26.011Z,98435.23
2022-09-15T13:53:25.704Z,98429.49
2022-09-15T13:55:55.633Z,98437.45
2022-09-15T14:01:14.442Z,98431.87
2022-09-15T14:04:00.816Z,98429.21
2022-09-15T14:06:35.670Z,98431.31
2022-09-15T14:09:08.894Z,98423.92
2022-09-15T14:11:38.677Z,98438.09
2022-09-15T14:14:21.385Z,98430.67
2022-09-15T14:16:50.834Z,98431.89
2022-09-15T14:19:34.944Z,98427.38
2022-09-15T14:22:18.960Z,98428.20
2022-09-15T14:24:47.515Z,98419.12
2022-09-15T14:27:22.202Z,98424.30
2022-09-15T14:29:55.382Z,98415.33
2022-09-15T14:32:25.480Z,98411.76
2022-09-15T14:34:55.185Z,98407.86
2022-09-15T14:37:29.361Z,98404.64
2022-09-15T14:39:59.969Z,98411.42
2022-09-15T14:42:31.126Z,98409.00
2022-09-15T14:48:09.010Z,98402.13
2022-09-15T14:50:37.565Z,98409.54
2022-09-15T14:53:13.672Z,98408.33
2022-09-15T14:56:08.220Z,98408.33
2022-09-15T14:58:58.306Z,98408.13
2022-09-15T15:02:02.344Z,98410.59
2022-09-15T15:04:30.043Z,98413.79
2022-09-15T15:07:22.753Z,98415.46
2022-09-15T15:09:56.446Z,98415.54
2022-09-15T15:12:34.201Z,98413.86
2022-09-15T15:15:03.039Z,98416.28
2022-09-15T15:17:41.981Z,98416.27
2022-09-15T15:20:09.774Z,98421.31
2022-09-15T15:22:39.238Z,98421.13
2022-09-15T15:25:32.320Z,98406.80
2022-09-15T15:28:00.689Z,98408.48
2022-09-15T15:30:31.381Z,98406.71
2022-09-15T15:33:19.283Z,98412.00
2022-09-15T15:36:02.280Z,98416.65
2022-09-15T15:38:34.490Z,98412.16
2022-09-15T15:41:08.096Z,98414.16
2022-09-15T15:43:36.152Z,98411.48
2022-09-15T15:46:06.389Z,98423.27
2022-09-15T15:48:38.239Z,98420.15
2022-09-15T15:51:07.704Z,98421.14
2022-09-15T15:53:35.682Z,98423.70
2022-09-15T15:56:03.483Z,98426.88
2022-09-15T15:58:31.487Z,98428.85
2022-09-15T16:00:59.878Z,98417.70
2022-09-15T16:03:27.878Z,98422.30
2022-09-15T16:06:00.191Z,98427.48
2022-09-15T16:08:34.795Z,98432.44
2022-09-15T16:11:03.462Z,98437.96
2022-09-15T16:13:31.378Z,98437.26
2022-09-15T16:16:00.985Z,98438.42
2022-09-15T16:18:29.676Z,98442.48
2022-09-15T16:20:57.538Z,98442.70
2022-09-15T16:23:25.286Z,98440.84
2022-09-15T16:26:02.829Z,98440.23
2022-09-15T16:28:30.770Z,98443.65
2022-09-15T16:30:59.607Z,98440.91
2022-09-15T16:33:27.638Z,98447.87
2022-09-15T16:35:57.458Z,98448.27
2022-09-15T16:38:25.854Z,98450.97
2022-09-15T16:40:53.713Z,98452.55
2022-09-15T16:43:22.680Z,98452.65
2022-09-15T16:45:51.478Z,98452.13
2022-09-15T16:48:20.172Z,98456.78
2022-09-15T16:51:16.954Z,98458.98
2022-09-15T16:53:39.545Z,98455.92
2022-09-15T16:56:11.225Z,98459.09
2022-09-15T16:58:40.005Z,98468.80
2022-09-15T17:01:16.067Z,98478.09
2022-09-15T17:03:44.952Z,98482.76
2022-09-15T17:06:14.804Z,98484.33
2022-09-15T17:08:42.761Z,98483.69
2022-09-15T17:11:16.819Z,98479.04
2022-09-15T17:13:46.894Z,98479.66
2022-09-15T17:16:19.546Z,98484.95
2022-09-15T17:18:47.845Z,98484.69
2022-09-15T17:21:17.909Z,98487.99
2022-09-15T17:23:49.282Z,98488.84
2022-09-15T17:26:30.524Z,98493.48
2022-09-15T17:28:59.502Z,98494.11
2022-09-15T17:31:28.151Z,98495.91
2022-09-15T17:33:56.298Z,98494.63
2022-09-15T17:36:24.135Z,98489.04
2022-09-15T17:38:51.967Z,98483.04
2022-09-15T17:41:22.976Z,98488.77
2022-09-15T17:43:52.009Z,98489.34
2022-09-15T17:46:19.837Z,98491.28
2022-09-15T17:48:47.608Z,98490.97
2022-09-15T17:51:17.539Z,98490.95
2022-09-15T17:53:46.995Z,98489.65
2022-09-15T17:56:15.011Z,98488.79
2022-09-15T17:58:43.842Z,98488.61
2022-09-15T18:01:14.061Z,98491.27
2022-09-15T18:03:44.242Z,98495.98
2022-09-15T18:06:12.504Z,98495.41
2022-09-15T18:08:40.807Z,98493.98
2022-09-15T18:11:08.720Z,98495.91
2022-09-15T18:13:37.830Z,98491.17
2022-09-15T18:16:07.889Z,98491.45
2022-09-15T18:18:35.759Z,98494.48
2022-09-15T18:21:08.599Z,98495.77
2022-09-15T18:23:38.271Z,98496.36
2022-09-15T18:26:06.121Z,98500.34
2022-09-15T18:28:33.918Z,98503.53
2022-09-15T18:31:01.745Z,98494.87
2022-09-15T18:33:30.143Z,98494.55
2022-09-15T18:36:01.453Z,98498.14
2022-09-15T18:38:29.299Z,98494.55
2022-09-15T18:40:57.187Z,98500.04
2022-09-15T18:43:27.831Z,98497.23
2022-09-15T18:46:00.540Z,98496.72
2022-09-15T18:48:30.373Z,98494.73
2022-09-15T18:50:58.755Z,98497.96
2022-09-15T18:53:26.595Z,98502.87
2022-09-15T18:55:54.495Z,98502.25
2022-09-15T18:58:22.770Z,98501.65
2022-09-15T19:00:50.530Z,98506.45
2022-09-15T19:03:18.433Z,98507.25
2022-09-15T19:05:46.248Z,98506.26
2022-09-15T19:08:14.233Z,98511.88
2022-09-15T19:10:44.042Z,98509.92
2022-09-15T19:13:13.854Z,98509.42
2022-09-15T19:15:43.988Z,98507.78
2022-09-15T19:18:12.029Z,98506.44
2022-09-15T19:20:40.341Z,98508.41
2022-09-15T19:23:09.637Z,98507.38
2022-09-15T19:25:37.691Z,98509.40
2022-09-15T19:28:11.498Z,98507.65
2022-09-15T19:30:39.364Z,98505.13
2022-09-15T19:33:07.207Z,98508.93
2022-09-15T19:35:34.947Z,98514.02
2022-09-15T19:38:02.698Z,98516.09
2022-09-15T19:40:31.025Z,98512.88
2022-09-15T19:42:59.003Z,98513.27
2022-09-15T19:45:26.925Z,98513.44
2022-09-15T19:47:54.687Z,98515.14
2022-09-15T19:50:23.327Z,98515.41
2022-09-15T19:52:51.089Z,98516.15
2022-09-15T19:55:18.926Z,98517.64
2022-09-15T19:57:46.677Z,98513.58
2022-09-15T20:00:14.946Z,98518.31
2022-09-15T20:02:46.773Z,98516.66
2022-09-15T20:05:14.880Z,98513.20
2022-09-15T20:07:44.736Z,98515.73
2022-09-15T20:10:12.633Z,98515.56
2022-09-15T20:12:40.535Z,98517.20
2022-09-15T20:15:08.874Z,98517.96
2022-09-15T20:17:41.585Z,98520.05
2022-09-15T20:20:11.760Z,98519.88
2022-09-15T20:22:39.666Z,98516.92
2022-09-15T20:25:07.695Z,98513.20
2022-09-15T20:27:35.466Z,98513.38
2022-09-15T20:30:04.264Z,98512.84
2022-09-15T20:32:33.951Z,98510.77
2022-09-15T20:35:02.118Z,98513.35
2022-09-15T20:37:36.627Z,98517.51
2022-09-15T20:40:08.554Z,98516.30
2022-09-15T20:42:37.045Z,98513.71
2022-09-15T20:45:05.429Z,98514.66
2022-09-15T20:47:33.430Z,98515.10
2022-09-15T20:50:01.248Z,98515.46
2022-09-15T20:52:35.925Z,98518.31
2022-09-15T20:55:06.304Z,98519.08
2022-09-15T20:57:34.155Z,98519.00
2022-09-15T21:00:04.793Z,98516.23
2022-09-15T21:02:32.779Z,98510.20
2022-09-15T21:05:00.620Z,98512.80
2022-09-15T21:07:28.451Z,98510.86
2022-09-15T21:09:56.221Z,98513.80
2022-09-15T21:12:24.014Z,98512.86
2022-09-15T21:14:51.898Z,98512.32
2022-09-15T21:17:19.803Z,98506.30
2022-09-15T21:19:47.602Z,98503.94
2022-09-15T21:22:15.377Z,98507.33
2022-09-15T21:24:43.241Z,98503.98
2022-09-15T21:27:27.156Z,98502.57
2022-09-15T21:29:54.821Z,98498.91
2022-09-15T21:32:23.223Z,98498.11
2022-09-15T21:34:51.166Z,98502.23
2022-09-15T21:37:18.975Z,98502.27
2022-09-15T21:39:46.830Z,98504.10
2022-09-15T21:42:15.068Z,98506.64
2022-09-15T21:44:42.844Z,98508.59
2022-09-15T21:47:11.107Z,98504.65
2022-09-15T21:49:38.867Z,98504.41
2022-09-15T21:52:06.647Z,98503.52
2022-09-15T21:54:34.640Z,98503.95
2022-09-15T21:57:02.433Z,98497.73
2022-09-15T21:59:30.228Z,98493.48
2022-09-15T22:01:58.077Z,98491.81
2022-09-15T22:04:25.996Z,98496.30
2022-09-15T22:06:54.162Z,98496.58
2022-09-15T22:09:21.940Z,98492.02
2022-09-15T22:11:49.761Z,98502.48
2022-09-15T22:14:18.083Z,98504.41
2022-09-15T22:16:46.041Z,98501.12
2022-09-15T22:19:14.115Z,98503.41
2022-09-15T22:21:42.342Z,98498.52
2022-09-15T22:24:13.083Z,98499.93
2022-09-15T22:26:42.544Z,98503.68
2022-09-15T22:29:10.846Z,98500.95
2022-09-15T22:31:38.831Z,98500.86
2022-09-15T22:34:06.803Z,98495.65
2022-09-15T22:40:10.677Z,98498.80
2022-09-15T22:42:38.840Z,98502.29
2022-09-15T22:45:08.539Z,98498.58
2022-09-15T22:47:36.336Z,98494.70
2022-09-15T22:50:04.516Z,98494.72
2022-09-15T22:52:32.290Z,98493.12
2022-09-15T22:55:01.340Z,98493.36
2022-09-15T22:57:29.146Z,98488.95
2022-09-15T22:59:56.920Z,98491.77
2022-09-15T23:02:24.778Z,98494.50
2022-09-15T23:04:54.267Z,98494.11
2022-09-15T23:07:21.988Z,98492.48
2022-09-15T23:09:49.707Z,98495.08
2022-09-15T23:12:17.482Z,98495.73
2022-09-15T23:14:45.336Z,98500.77
2022-09-15T23:17:13.169Z,98500.77
2022-09-15T23:19:40.937Z,98507.23
2022-09-15T23:22:08.665Z,98501.83
2022-09-15T23:24:36.664Z,98508.08
2022-09-15T23:27:04.688Z,98506.55
2022-09-15T23:29:32.577Z,98507.00
2022-09-15T23:32:00.291Z,98507.86
2022-09-15T23:34:28.073Z,98507.50
2022-09-15T23:36:57.008Z,98503.89
2022-09-15T23:39:25.063Z,98506.61
2022-09-15T23:41:52.869Z,98507.05
2022-09-15T23:44:20.792Z,98507.17
2022-09-15T23:46:48.963Z,98510.95
2022-09-15T23:49:18.771Z,98512.15
2022-09-15T23:51:46.779Z,98512.98
2022-09-15T23:54:14.745Z,98512.47
2022-09-15T23:56:43.329Z,98518.71
2022-09-15T23:59:11.144Z,98515.45
